Skip Navigation Links
NOAA logo - Click to go to the NOAA homepage
NOAA's National Weather Service
Alaska Aviation Weather Unit
  NWS logo - Click to go to the NWS homepage
Left Navbar Graphic     17 AKDT = 01 GMT

   
NOAA is celebrating 200 years of science, service, and stewardship. Visit the NOAA 200th celebration Web site to learn more.
USA.gov is the U.S. Government's official Web portal to all Federal, state and local government Web resources and services.
Facebook
NWS on Facebook

Important Change Regarding the AAWU Web Presence

 

Over the last several months, the AAWU has been working to navigate its webpages to a nationally supported server. Security, as well as other needs, have necessitated the change.  In the process, we have made an effort to enhance the functionality of our website, as well as some of our products. As of June 27, 2017, aawu.arh.noaa.gov will be discontinued. The new AAWU web address is weather.gov/aawu. It is now live and will run in-parallel with the old site until it is discontinued. Please send any feedback or questions regarding the new webpages to nws.ar.aawu.webauthors@noaa.gov.  Thank you for your patience during this time of transition.
AAWU Home :: Display TAF Add Bookmark
TAF CYZY 260038Z 2601/2609 16012G22KT P6SM SCT100 BKN150 TEMPO
     2601/2606 P6SM -SHRA BKN080 OVC100
     BECMG 2603/2605 20005KT
    FM260600 20005KT P6SM SCT100
     BECMG 2607/2609 16005KT
    RMK FCST BASED ON AUTO OBS. NXT FCST BY 260700Z=

METAR CYZY 251900Z AUTO 17015KT 130V190 9SM FEW140 25/06 A2992 RMK SLP137 DENSITY ALT 3900FT= METAR CYZY 252000Z AUTO 15009G19KT 130V200 9SM CLR 26/07 A2989 RMK SLP128 DENSITY ALT 4000FT= METAR CYZY 252100Z AUTO 16012G19KT 130V190 9SM CLR 27/06 A2986 RMK SLP117 DENSITY ALT 4100FT= METAR CYZY 252200Z AUTO 17012G19KT 9SM CLR 27/07 A2983 RMK LTNG DIST NW SLP107 DENSITY ALT 4200FT= METAR CYZY 252300Z AUTO 17014G23KT 9SM CLR 28/06 A2980 RMK SLP098 DENSITY ALT 4300FT= METAR CYZY 260000Z AUTO 16014G23KT 9SM FEW150 28/05 A2978 RMK SLP090 DENSITY ALT 4300FT= METAR CYZY 260100Z AUTO 17011G16KT 9SM FEW110 BKN130 BKN150 26/05 A2975 RMK LTNG DIST N SW SLP079 DENSITY ALT 4200FT=
 Alaska TAF Map

NOAA's National Weather Service
Alaska Aviation Weather Unit
6930 Sand Lake Road
Anchorage, AK 99502-1845
Disclaimer
Credits
Glossary
Privacy Policy
About Us
Career Opportunities
Contact AAWU Internet Services Site last modified: April, 17th 2012